Four Mile, Illinois
Current Conditions -  °F | °C
As of 9:15 PM on Saturday 22 Nov 2014 (Local Time) from KFWC Reporting Station
Overcast Overcast  
Wind Chill: 55°   Ceiling: 6500
Heat Index: 55°   Visibility: 10mi
Dew Point: 42°   Wind: 6mph
Humidity: 62%   Direction: 170°S
Pressure: 29.96"   Gusts: NA
Location:  38.3069°N, 88.55°W
Report Text: KFWC 230315Z AUTO 17005KT 10SM SCT038 BKN065 OVC110 13/05 A2996 RMK AO1 T01250054
Loading
Personal Weather Stations






























Interactive Weather Map New forecast layout! Learn more

10-Day Weather Forecast

Advertisements
Track Severe Weather on mobile